Time;durP1;ratioP1;P1;durP2;ratioP2;P2;SDS_P1;SDS_P2;PMS_P1;PMS_P2;Temp;Humidity;BMP_temperature;BMP_pressure;BME280_temperature;BME280_humidity;BME280_pressure;Samples;Min_cycle;Max_cycle;Signal;HPM_P1;HPM_P2
2024/04/18 00:00:33;;;;;;;;;7.17;6.33;;;;;9.41;58.21;101397.81;2202227;26;2743983;-77
2024/04/18 00:01:50;;;;;;;;;7.17;6.67;;;;;9.43;58.64;101406.56;2205822;26;2730422;-76
2024/04/18 00:03:04;;;;;;;;;8.67;6.00;;;;;9.36;58.89;101397.91;2195883;25;2749369;-77
2024/04/18 00:04:17;;;;;;;;;6.67;6.67;;;;;9.37;58.48;101409.28;2199519;26;2746050;-77
2024/04/18 00:05:32;;;;;;;;;10.00;9.00;;;;;9.34;58.75;101408.44;2206044;26;2753346;-77
2024/04/18 00:06:43;;;;;;;;;10.33;8.67;;;;;9.35;58.63;101409.31;2152497;26;2762729;-77
2024/04/18 00:07:54;;;;;;;;;8.33;8.33;;;;;9.34;58.43;101410.19;2167146;26;2742901;-76
2024/04/18 00:09:07;;;;;;;;;7.17;7.17;;;;;9.30;58.87;101414.63;2195164;26;2745028;-77
2024/04/18 00:10:21;;;;;;;;;8.33;8.00;;;;;9.28;58.89;101405.94;2206533;26;2747075;-77
2024/04/18 00:11:32;;;;;;;;;10.00;6.33;;;;;9.23;58.58;101405.97;2178210;25;2757606;-76
2024/04/18 00:12:46;;;;;;;;;9.50;8.33;;;;;9.25;58.19;101405.09;2194801;26;2746740;-77
2024/04/18 00:13:57;;;;;;;;;7.00;6.00;;;;;9.24;58.58;101404.22;2177787;26;2739808;-77
2024/04/18 00:15:08;;;;;;;;;9.33;7.67;;;;;9.22;59.05;101403.41;2178574;26;2768995;-76
2024/04/18 00:16:19;;;;;;;;;7.67;5.67;;;;;9.21;58.59;101407.78;2172884;26;2752410;-76
2024/04/18 00:17:33;;;;;;;;;6.33;6.33;;;;;9.18;59.51;101410.47;2202506;26;2746117;-77
2024/04/18 00:18:46;;;;;;;;;8.33;7.33;;;;;9.17;59.22;101408.72;2208172;25;2745479;-76
2024/04/18 00:20:01;;;;;;;;;6.33;6.17;;;;;9.16;59.03;101412.22;2180555;26;2739784;-76
2024/04/18 00:21:15;;;;;;;;;8.17;7.17;;;;;9.15;58.67;101409.63;2182255;26;2739812;-77
2024/04/18 00:22:29;;;;;;;;;8.00;8.00;;;;;9.13;58.77;101412.28;2200726;26;2736670;-77
2024/04/18 00:23:43;;;;;;;;;8.00;6.67;;;;;9.09;59.49;101410.59;2206124;25;2741947;-77
2024/04/18 00:24:57;;;;;;;;;7.83;7.50;;;;;9.07;58.86;101407.13;2208670;25;2737697;-77
2024/04/18 00:26:11;;;;;;;;;6.50;6.50;;;;;9.10;59.25;101407.09;2207970;26;2740923;-77
2024/04/18 00:27:26;;;;;;;;;5.67;5.50;;;;;9.08;59.22;101406.25;2198657;26;2748247;-76
2024/04/18 00:28:40;;;;;;;;;9.33;7.00;;;;;9.09;59.40;101405.34;2182894;25;2755432;-77
2024/04/18 00:29:54;;;;;;;;;8.00;7.17;;;;;9.10;58.78;101401.84;2182132;26;2741899;-77
2024/04/18 00:31:08;;;;;;;;;5.17;5.17;;;;;9.10;59.67;101396.59;2181800;25;2750240;-77
2024/04/18 00:32:21;;;;;;;;;7.67;6.33;;;;;9.12;59.29;101394.81;2197057;26;2741285;-77
2024/04/18 00:33:35;;;;;;;;;6.00;6.00;;;;;9.11;60.09;101400.97;2191771;26;2748145;-77
2024/04/18 00:34:49;;;;;;;;;7.67;7.00;;;;;9.13;59.47;101401.81;2194226;26;2743242;-77
2024/04/18 00:36:06;;;;;;;;;7.50;6.17;;;;;9.11;59.20;101400.97;2180228;26;2750248;-77
2024/04/18 00:37:20;;;;;;;;;2.67;2.67;;;;;9.10;59.60;101397.47;2185752;26;2725205;-78
2024/04/18 00:38:34;;;;;;;;;8.00;5.67;;;;;9.14;59.71;101408.75;2193719;26;2746066;-78
2024/04/18 00:39:48;;;;;;;;;6.67;5.17;;;;;9.16;59.96;101408.75;2178386;26;2746061;-77
2024/04/18 00:41:02;;;;;;;;;2.83;2.00;;;;;9.18;59.60;101404.34;2207295;26;2741906;-77
2024/04/18 00:42:16;;;;;;;;;3.50;2.00;;;;;9.16;59.41;101401.72;2195575;26;2731484;-77
2024/04/18 00:43:29;;;;;;;;;10.67;6.83;;;;;9.18;59.50;101394.72;2199320;26;2752284;-77
2024/04/18 00:44:43;;;;;;;;;6.00;6.00;;;;;9.19;59.61;101392.94;2169634;26;2742933;-77
2024/04/18 00:45:58;;;;;;;;;7.50;6.67;;;;;9.21;59.63;101389.41;2180872;26;2750209;-77
2024/04/18 00:47:13;;;;;;;;;8.67;6.17;;;;;9.20;59.29;101382.44;2168700;26;2745003;-77
2024/04/18 00:48:29;;;;;;;;;6.50;5.00;;;;;9.22;60.18;101385.91;2206911;26;2748117;-76
2024/04/18 00:49:43;;;;;;;;;8.67;7.17;;;;;9.25;59.74;101392.00;2183084;25;2748115;-77
2024/04/18 00:50:59;;;;;;;;;8.33;7.17;;;;;9.28;59.83;101398.06;2206838;26;2750227;-77
2024/04/18 00:52:20;;;;;;;;;7.00;7.00;;;;;9.29;60.44;101401.53;2206921;26;2739808;-76
2024/04/18 00:53:34;;;;;;;;;7.33;7.33;;;;;9.30;59.77;101401.53;2209110;25;2733578;-77
2024/04/18 00:54:49;;;;;;;;;7.50;6.17;;;;;9.31;59.98;101405.03;2200489;25;2750219;-77
2024/04/18 00:56:00;;;;;;;;;8.67;7.00;;;;;9.32;59.90;101414.59;2165120;26;2750250;-77
2024/04/18 00:57:15;;;;;;;;;6.33;5.83;;;;;9.32;60.65;101411.97;2191630;26;2746054;-77
2024/04/18 00:58:29;;;;;;;;;4.67;2.83;;;;;9.32;60.33;101411.97;2167841;26;2746094;-77
2024/04/18 00:59:47;;;;;;;;;7.67;6.67;;;;;9.36;60.17;101418.06;2181903;25;2748145;-77
2024/04/18 01:01:01;;;;;;;;;7.67;7.17;;;;;9.36;59.92;101408.41;2181554;25;2742973;-76
2024/04/18 01:02:15;;;;;;;;;8.17;6.00;;;;;9.34;58.92;101421.56;2209856;25;2730909;-77
2024/04/18 01:03:29;;;;;;;;;5.17;4.83;;;;;9.36;59.63;101421.53;2203350;26;2741905;-77
2024/04/18 01:04:44;;;;;;;;;7.50;7.00;;;;;9.34;60.01;101418.06;2198700;25;2732581;-77
2024/04/18 01:05:58;;;;;;;;;7.33;7.33;;;;;9.34;59.51;101428.56;2170214;26;2723130;-77
2024/04/18 01:07:12;;;;;;;;;8.83;6.67;;;;;9.38;58.97;101442.50;2166867;26;2752362;-76
2024/04/18 01:08:25;;;;;;;;;6.17;6.00;;;;;9.33;58.91;101434.72;2169593;26;2746080;-78
2024/04/18 01:09:39;;;;;;;;;4.17;4.17;;;;;9.30;59.10;101440.88;2167316;26;2750239;-77
2024/04/18 01:10:53;;;;;;;;;6.00;4.50;;;;;9.28;58.31;101439.16;2167443;26;2754478;-78
2024/04/18 01:12:07;;;;;;;;;2.67;2.00;;;;;9.25;58.62;101440.06;2176354;26;2738786;-77
2024/04/18 01:13:20;;;;;;;;;6.00;4.67;;;;;9.24;58.64;101440.97;2193170;26;2742924;-77
2024/04/18 01:14:34;;;;;;;;;6.17;4.67;;;;;9.22;58.78;101438.38;2206129;26;2747134;-77
2024/04/18 01:15:48;;;;;;;;;6.67;4.83;;;;;9.25;58.49;101439.22;2180138;26;2745018;-77
2024/04/18 01:17:03;;;;;;;;;5.83;5.50;;;;;9.18;58.82;101452.44;2178627;25;2746055;-77
2024/04/18 01:18:17;;;;;;;;;4.33;4.33;;;;;9.05;59.69;101458.75;2207224;25;2746061;-76
2024/04/18 01:19:31;;;;;;;;;3.83;3.83;;;;;8.97;60.60;101462.34;2192483;26;2735621;-76
2024/04/18 01:20:45;;;;;;;;;4.50;4.33;;;;;8.92;60.56;101461.53;2172331;26;2752331;-76
2024/04/18 01:21:59;;;;;;;;;3.83;2.50;;;;;8.88;60.84;101459.84;2169894;26;2746050;-76
2024/04/18 01:23:12;;;;;;;;;2.83;2.83;;;;;8.79;61.40;101460.84;2207839;25;2754391;-76
2024/04/18 01:24:26;;;;;;;;;6.67;3.83;;;;;8.74;61.53;101463.53;2176285;26;2737744;-76
2024/04/18 01:25:40;;;;;;;;;6.00;6.00;;;;;8.65;62.31;101458.41;2181553;26;2733615;-76
2024/04/18 01:26:51;;;;;;;;;8.33;6.33;;;;;8.55;62.54;101468.13;2149624;26;2746085;-76
2024/04/18 01:28:04;;;;;;;;;5.00;4.33;;;;;8.45;62.80;101467.34;2202052;26;2738802;-76
2024/04/18 01:29:18;;;;;;;;;6.33;5.67;;;;;8.38;62.92;101468.31;2167005;26;2750200;-76
2024/04/18 01:30:36;;;;;;;;;5.50;5.50;;;;;8.32;63.22;101467.50;2220779;25;2746034;-75
2024/04/18 01:31:50;;;;;;;;;6.67;5.17;;;;;8.31;62.98;101465.78;2215630;25;2746030;-76
2024/04/18 01:33:04;;;;;;;;;4.83;4.83;;;;;8.26;63.10;101471.97;2181072;26;2748160;-76
2024/04/18 01:34:18;;;;;;;;;7.33;6.50;;;;;8.20;63.22;101470.25;2180221;26;2745011;-76
2024/04/18 01:35:32;;;;;;;;;2.83;2.83;;;;;8.15;63.58;101459.84;2195632;26;2743020;-76
2024/04/18 01:36:46;;;;;;;;;6.67;6.67;;;;;8.10;63.27;101464.25;2192246;26;2739835;-75
2024/04/18 01:37:59;;;;;;;;;5.00;5.00;;;;;8.01;63.48;101454.75;2183313;26;2747086;-75
2024/04/18 01:39:13;;;;;;;;;5.17;4.83;;;;;8.03;63.73;101460.84;2205264;25;2746045;-75
2024/04/18 01:40:27;;;;;;;;;6.17;5.00;;;;;8.00;63.83;101455.63;2207446;25;2746105;-75
2024/04/18 01:41:41;;;;;;;;;5.83;5.00;;;;;7.98;63.77;101447.81;2204288;26;2750220;-76
2024/04/18 01:42:54;;;;;;;;;3.67;3.67;;;;;7.96;64.05;101448.72;2167961;26;2749190;-76
2024/04/18 01:44:08;;;;;;;;;2.33;2.33;;;;;7.96;63.67;101441.72;2203073;26;2735633;-76
2024/04/18 01:45:22;;;;;;;;;3.83;3.83;;;;;7.97;63.95;101435.63;2209376;25;2745007;-76
2024/04/18 01:46:36;;;;;;;;;5.50;5.17;;;;;8.02;64.14;101443.41;2174312;25;2748149;-76
2024/04/18 01:47:50;;;;;;;;;5.00;5.00;;;;;8.05;63.66;101439.91;2205691;26;2754379;-75
2024/04/18 01:49:03;;;;;;;;;4.67;4.67;;;;;8.03;63.56;101431.16;2181982;26;2746050;-76
2024/04/18 01:50:17;;;;;;;;;4.50;4.50;;;;;8.07;63.79;101432.91;2162661;26;2747103;-76
2024/04/18 01:51:31;;;;;;;;;5.67;5.00;;;;;8.15;64.43;101443.28;2177704;26;2754367;-75
2024/04/18 01:52:45;;;;;;;;;6.83;6.83;;;;;8.16;64.33;101445.00;2203751;25;2744036;-75
2024/04/18 01:53:58;;;;;;;;;6.33;4.83;;;;;8.17;65.06;101446.75;2194091;26;2750208;-75
2024/04/18 01:55:12;;;;;;;;;6.83;6.50;;;;;8.22;64.39;101445.78;2192996;26;2754359;-75
2024/04/18 01:56:26;;;;;;;;;4.17;4.17;;;;;8.25;64.77;101444.88;2166851;26;2751301;-76
2024/04/18 01:57:40;;;;;;;;;4.00;4.00;;;;;8.31;64.72;101446.59;2169735;26;2754397;-76
2024/04/18 01:58:54;;;;;;;;;6.00;5.17;;;;;8.32;65.06;101446.53;2182157;26;2746093;-76
2024/04/18 02:00:10;;;;;;;;;6.17;6.00;;;;;8.33;65.27;101447.41;2206595;25;2747186;-76
2024/04/18 02:01:24;;;;;;;;;5.00;5.00;;;;;8.37;64.76;101451.72;2201041;26;2746056;-76
2024/04/18 02:02:38;;;;;;;;;5.17;5.17;;;;;8.37;65.24;101448.28;2207405;25;2750280;-76
2024/04/18 02:03:52;;;;;;;;;6.00;4.50;;;;;8.42;65.65;101451.69;2206748;25;2740830;-76
2024/04/18 02:05:05;;;;;;;;;5.00;5.00;;;;;8.43;65.13;101442.94;2203555;26;2740885;-76
2024/04/18 02:06:19;;;;;;;;;5.67;5.33;;;;;8.42;65.79;101443.84;2169349;26;2745026;-76
2024/04/18 02:07:33;;;;;;;;;5.50;5.50;;;;;8.47;65.44;101451.63;2168191;26;2745021;-76
2024/04/18 02:08:47;;;;;;;;;5.67;5.67;;;;;8.51;65.22;101450.72;2191642;26;2746072;-76
2024/04/18 02:10:01;;;;;;;;;7.50;6.17;;;;;8.52;65.54;101452.44;2198829;26;2746057;-76
2024/04/18 02:11:14;;;;;;;;;7.00;5.00;;;;;8.52;64.73;101453.28;2202887;25;2748140;-76
2024/04/18 02:12:28;;;;;;;;;4.00;4.00;;;;;8.55;64.28;101457.63;2176048;25;2754425;-76
2024/04/18 02:13:42;;;;;;;;;4.00;4.00;;;;;8.54;65.18;101455.91;2169706;26;2737701;-76
2024/04/18 02:14:56;;;;;;;;;4.50;4.50;;;;;8.55;64.77;101458.50;2205289;25;2750258;-76
2024/04/18 02:16:09;;;;;;;;;7.33;6.33;;;;;8.56;64.69;101462.00;2182326;26;2731451;-76
2024/04/18 02:17:23;;;;;;;;;4.00;4.00;;;;;8.54;64.52;101459.38;2195426;26;2746055;-76
2024/04/18 02:18:37;;;;;;;;;4.00;4.00;;;;;8.55;64.56;101460.25;2201623;26;2751273;-76
2024/04/18 02:19:51;;;;;;;;;6.50;5.33;;;;;8.53;64.71;101464.66;2180497;25;2748145;-76
2024/04/18 02:21:04;;;;;;;;;5.17;5.17;;;;;8.50;64.42;101462.06;2193502;26;2754459;-76
2024/04/18 02:22:18;;;;;;;;;6.50;5.00;;;;;8.49;63.90;101458.59;2174865;25;2745312;-76
2024/04/18 02:23:32;;;;;;;;;7.83;4.83;;;;;8.48;64.08;101454.22;2205747;26;2744996;-76
2024/04/18 02:25:25;;;;;;;;;5.83;5.83;;;;;8.48;64.93;101462.09;2182979;26;2737729;-76
2024/04/18 02:26:38;;;;;;;;;5.50;5.50;;;;;8.49;65.02;101460.34;2190220;26;2750240;-76
2024/04/18 02:27:52;;;;;;;;;9.67;6.00;;;;;8.50;65.38;101462.94;2176556;26;2750231;-76
2024/04/18 02:29:07;;;;;;;;;5.17;5.17;;;;;8.55;65.81;101468.13;2152907;26;2746098;-76
2024/04/18 02:30:20;;;;;;;;;5.67;5.33;;;;;8.54;65.55;101462.00;2153353;26;2739864;-76
2024/04/18 02:31:34;;;;;;;;;6.17;6.17;;;;;8.56;64.86;101464.63;2180773;26;2737732;-76
2024/04/18 02:32:48;;;;;;;;;6.50;5.17;;;;;8.61;65.13;101472.44;2198822;26;2745045;-76
2024/04/18 02:34:02;;;;;;;;;5.50;5.50;;;;;8.63;64.98;101470.66;2192173;26;2742901;-76
2024/04/18 02:35:16;;;;;;;;;6.67;5.50;;;;;8.59;64.51;101467.25;2161941;26;2746372;-76
2024/04/18 02:36:29;;;;;;;;;5.50;5.50;;;;;8.60;64.79;101468.97;2204259;26;2750275;-76
2024/04/18 02:37:43;;;;;;;;;4.83;4.83;;;;;8.64;64.84;101467.19;2208316;25;2752339;-77
2024/04/18 02:38:57;;;;;;;;;5.33;5.00;;;;;8.63;65.55;101462.81;2193558;26;2748172;-76
2024/04/18 02:40:11;;;;;;;;;6.00;5.00;;;;;8.67;65.59;101472.34;2172436;26;2752303;-76
2024/04/18 02:41:25;;;;;;;;;1.17;1.17;;;;;8.66;65.40;101473.25;2179850;26;2735634;-76
2024/04/18 02:42:39;;;;;;;;;5.67;5.00;;;;;8.63;64.37;101466.31;2204646;26;2745016;-77
2024/04/18 02:43:54;;;;;;;;;5.33;3.67;;;;;8.66;64.03;101481.13;2181302;26;2742327;-77
2024/04/18 02:45:08;;;;;;;;;5.00;4.17;;;;;8.57;63.67;101473.34;2181518;25;2754421;-76
2024/04/18 02:46:22;;;;;;;;;4.00;4.00;;;;;8.58;64.48;101485.56;2182319;25;2746087;-77
2024/04/18 02:47:36;;;;;;;;;3.00;3.00;;;;;8.54;64.42;101482.97;2182596;25;2754476;-76
2024/04/18 02:48:50;;;;;;;;;5.33;5.33;;;;;8.58;64.32;101488.16;2180389;26;2741896;-76
2024/04/18 02:50:04;;;;;;;;;6.50;5.83;;;;;8.55;64.70;101476.84;2206223;26;2748114;-76
2024/04/18 02:51:17;;;;;;;;;5.00;5.00;;;;;8.58;64.91;101488.16;2204808;25;2743980;-77
2024/04/18 02:52:31;;;;;;;;;8.50;6.00;;;;;8.61;64.56;101489.06;2204595;26;2746067;-76
2024/04/18 02:53:45;;;;;;;;;5.83;5.50;;;;;8.63;64.93;101494.25;2195192;26;2747087;-77
2024/04/18 02:54:59;;;;;;;;;5.50;4.50;;;;;8.61;64.58;101482.94;2182904;25;2746111;-77
2024/04/18 02:56:12;;;;;;;;;7.00;5.67;;;;;8.60;64.70;101492.53;2174694;25;2748128;-76
2024/04/18 02:57:28;;;;;;;;;5.00;5.00;;;;;8.61;64.67;101494.28;2167489;26;2741907;-76
2024/04/18 02:58:41;;;;;;;;;2.17;1.83;;;;;8.59;63.92;101496.06;2180825;26;2732493;-76
2024/04/18 02:59:57;;;;;;;;;4.00;4.00;;;;;8.59;64.56;101495.19;2193373;26;2737133;-76
2024/04/18 03:01:11;;;;;;;;;3.83;3.83;;;;;8.56;64.03;101493.44;2197160;26;2737722;-76
2024/04/18 03:02:25;;;;;;;;;3.67;3.67;;;;;8.55;64.65;101499.56;2180970;25;2740842;-77
2024/04/18 03:03:39;;;;;;;;;5.33;5.33;;;;;8.55;64.48;101492.56;2182115;26;2744001;-76
2024/04/18 03:04:52;;;;;;;;;4.33;4.33;;;;;8.57;64.02;101499.56;2173430;25;2740826;-76
2024/04/18 03:06:06;;;;;;;;;5.33;5.33;;;;;8.55;64.65;101491.69;2174277;26;2749234;-76
2024/04/18 03:07:20;;;;;;;;;3.50;3.50;;;;;8.55;64.21;101489.94;2178993;25;2746070;-76
2024/04/18 03:08:34;;;;;;;;;4.67;4.17;;;;;8.53;64.27;101491.72;2204045;26;2746055;-76
2024/04/18 03:09:47;;;;;;;;;4.50;4.50;;;;;8.53;64.11;101496.97;2201793;26;2752319;-76
2024/04/18 03:11:01;;;;;;;;;4.17;3.50;;;;;8.49;63.97;101483.94;2166992;26;2741875;-76
2024/04/18 03:12:15;;;;;;;;;3.50;3.50;;;;;8.51;65.12;101483.03;2201117;26;2748136;-76
2024/04/18 03:13:29;;;;;;;;;5.50;3.67;;;;;8.51;65.11;101482.16;2171813;26;2738064;-76
2024/04/18 03:14:42;;;;;;;;;5.67;5.67;;;;;8.54;65.32;101482.13;2179044;25;2747115;-76
2024/04/18 03:15:56;;;;;;;;;4.00;4.00;;;;;8.53;64.20;101483.88;2206248;26;2746155;-76
2024/04/18 03:17:10;;;;;;;;;4.00;4.00;;;;;8.50;64.51;101481.28;2197670;26;2754375;-76
2024/04/18 03:18:21;;;;;;;;;6.00;5.00;;;;;8.51;64.59;101477.78;2142879;26;2754906;-76
2024/04/18 03:19:35;;;;;;;;;4.67;4.67;;;;;8.52;64.70;101482.13;2201555;26;2740830;-76
2024/04/18 03:20:52;;;;;;;;;7.67;5.33;;;;;8.53;64.70;101486.47;2191446;26;2752314;-76
2024/04/18 03:22:06;;;;;;;;;5.00;5.00;;;;;8.52;64.55;101482.13;2167534;26;2738754;-76
2024/04/18 03:23:20;;;;;;;;;7.00;6.00;;;;;8.50;65.12;101483.91;2172600;26;2745150;-76
2024/04/18 03:24:31;;;;;;;;;8.67;8.67;;;;;8.42;63.97;101470.03;2185085;26;1829908;-77
2024/04/18 03:25:47;;;;;;;;;8.50;8.50;;;;;8.47;64.92;101486.53;2172455;26;2737697;-76
2024/04/18 03:27:01;;;;;;;;;7.17;6.00;;;;;8.43;64.67;101485.72;2197407;26;2745004;-77
2024/04/18 03:28:14;;;;;;;;;9.17;8.33;;;;;8.42;64.86;101489.22;2193407;26;2749502;-76
2024/04/18 03:29:28;;;;;;;;;8.00;7.83;;;;;8.43;65.13;101496.22;2175339;26;2736081;-76
2024/04/18 03:30:39;;;;;;;;;9.00;8.33;;;;;8.36;64.75;101481.44;2177109;25;2737710;-76
2024/04/18 03:31:53;;;;;;;;;7.67;7.33;;;;;8.37;65.22;101485.78;2205970;26;2743954;-76
2024/04/18 03:33:04;;;;;;;;;9.00;8.33;;;;;8.38;65.21;101498.00;2176141;25;2735702;-77
2024/04/18 03:34:18;;;;;;;;;9.83;9.00;;;;;8.36;65.40;101496.28;2200159;25;2740858;-76
2024/04/18 03:35:32;;;;;;;;;8.33;7.67;;;;;8.36;64.93;101502.41;2200957;26;2753391;-76
2024/04/18 03:36:52;;;;;;;;;7.33;7.33;;;;;8.33;64.63;101508.53;2203901;26;2738769;-76
2024/04/18 03:38:03;;;;;;;;;11.00;9.00;;;;;8.27;64.89;101508.59;2179939;25;2764795;-76
2024/04/18 03:39:18;;;;;;;;;10.83;9.00;;;;;8.22;64.73;101498.16;2201650;26;2758529;-77
2024/04/18 03:40:29;;;;;;;;;10.00;8.33;;;;;8.25;64.86;101506.91;2152148;26;2757548;-76
2024/04/18 03:41:43;;;;;;;;;8.50;7.00;;;;;8.22;64.75;101508.66;2206647;26;2736106;-76
2024/04/18 03:42:53;;;;;;;;;10.33;8.33;;;;;8.20;64.88;101510.41;2177436;25;2763188;-76
2024/04/18 03:44:10;;;;;;;;;8.83;8.00;;;;;8.21;65.14;101519.16;2205677;26;2735634;-76
2024/04/18 03:45:24;;;;;;;;;8.83;8.83;;;;;8.18;65.16;101511.31;2205627;25;2741863;-76
2024/04/18 03:46:38;;;;;;;;;8.83;8.83;;;;;8.15;65.42;101506.13;2205215;26;2741456;-77
2024/04/18 03:47:52;;;;;;;;;10.00;8.50;;;;;8.19;65.53;101507.81;2169954;26;2759578;-77
2024/04/18 03:49:03;;;;;;;;;8.33;8.33;;;;;8.19;65.20;101513.06;2139933;26;3446014;-77
2024/04/18 03:50:17;;;;;;;;;9.00;7.00;;;;;8.20;65.39;101517.41;2202952;26;2746030;-77
2024/04/18 03:51:30;;;;;;;;;11.33;11.33;;;;;8.20;64.85;101512.16;2162710;26;3507562;-76
2024/04/18 03:52:43;;;;;;;;;8.67;8.67;;;;;8.18;64.88;101520.03;2206510;26;2736689;-77
2024/04/18 03:53:57;;;;;;;;;9.17;8.00;;;;;8.16;65.01;101519.19;2201283;25;2748121;-76
2024/04/18 03:55:11;;;;;;;;;8.00;8.00;;;;;8.13;65.08;101520.97;2182963;26;2727355;-77
2024/04/18 03:56:25;;;;;;;;;7.83;7.17;;;;;8.12;65.53;101524.50;2206311;26;2743954;-76
2024/04/18 03:57:36;;;;;;;;;10.00;10.00;;;;;8.12;65.44;101527.97;2162928;26;3507493;-77
2024/04/18 03:58:52;;;;;;;;;10.33;8.67;;;;;8.14;65.45;101530.56;2207413;26;2755466;-76
2024/04/18 04:00:07;;;;;;;;;8.33;6.00;;;;;8.10;64.89;101534.97;2178397;26;2748155;-76
2024/04/18 04:01:18;;;;;;;;;8.67;8.67;;;;;8.10;65.35;101530.59;2177716;26;2746100;-76
2024/04/18 04:02:32;;;;;;;;;8.67;8.67;;;;;8.10;64.86;101534.97;2180757;26;2748167;-76
2024/04/18 04:03:43;;;;;;;;;11.67;7.33;;;;;8.07;65.32;101537.63;2178850;26;3485587;-76
2024/04/18 04:04:57;;;;;;;;;6.67;6.67;;;;;8.05;64.95;101534.16;2206844;26;2737712;-76
2024/04/18 04:06:08;;;;;;;;;11.00;9.00;;;;;8.04;65.10;101530.66;2167863;26;3484592;-76
2024/04/18 04:07:20;;;;;;;;;9.33;9.33;;;;;8.06;65.15;101535.88;2174504;25;2764825;-76
2024/04/18 04:08:34;;;;;;;;;7.50;7.50;;;;;8.03;65.05;101530.66;2197608;26;2729389;-76
2024/04/18 04:09:48;;;;;;;;;9.00;7.83;;;;;8.05;65.24;101531.53;2192738;26;2743954;-76
2024/04/18 04:11:02;;;;;;;;;9.83;8.00;;;;;8.04;65.19;101533.28;2204251;26;2755461;-77
2024/04/18 04:12:13;;;;;;;;;10.67;9.33;;;;;8.01;64.89;101535.94;2175751;26;3484538;-76
2024/04/18 04:13:23;;;;;;;;;9.33;8.33;;;;;8.00;65.46;101534.19;2164923;26;3459623;-76
2024/04/18 04:14:35;;;;;;;;;10.00;8.00;;;;;8.02;65.53;101539.41;2176633;26;3471009;-77
2024/04/18 04:15:50;;;;;;;;;10.00;9.00;;;;;7.98;65.36;101531.59;2179501;26;2766994;-76
2024/04/18 04:17:04;;;;;;;;;8.00;7.50;;;;;7.97;65.36;101544.69;2200851;26;2741959;-76
2024/04/18 04:18:15;;;;;;;;;10.00;9.00;;;;;7.97;65.19;101544.69;2176654;25;3469995;-76
2024/04/18 04:19:25;;;;;;;;;9.00;9.00;;;;;7.92;65.45;101546.47;2177815;26;2485643;-77
2024/04/18 04:20:39;;;;;;;;;7.00;7.00;;;;;7.92;65.42;101546.47;2205577;26;2733613;-77
2024/04/18 04:21:53;;;;;;;;;7.50;7.17;;;;;7.86;65.09;101547.41;2179061;26;2744972;-76
2024/04/18 04:23:07;;;;;;;;;7.17;6.33;;;;;7.83;65.40;101545.66;2178530;25;2735686;-77
2024/04/18 04:24:18;;;;;;;;;12.00;10.33;;;;;7.84;65.43;101543.94;2147167;26;3508503;-77
2024/04/18 04:25:29;;;;;;;;;12.00;10.67;;;;;7.82;65.09;101540.47;2175561;26;3511654;-76
2024/04/18 04:26:40;;;;;;;;;10.00;8.67;;;;;7.83;66.00;101545.66;2173015;26;2758702;-77
2024/04/18 04:27:54;;;;;;;;;9.67;9.00;;;;;7.82;66.00;101546.56;2207874;25;2762821;-77
2024/04/18 04:29:07;;;;;;;;;6.83;6.00;;;;;7.81;65.29;101555.28;2208364;26;2741860;-77
2024/04/18 04:30:21;;;;;;;;;8.00;7.00;;;;;7.80;65.63;101552.69;2197898;25;2732555;-76
2024/04/18 04:31:35;;;;;;;;;5.17;4.67;;;;;7.75;65.48;101555.34;2206908;25;2746022;-77
2024/04/18 04:32:49;;;;;;;;;6.67;4.67;;;;;7.74;65.41;101558.84;2206360;25;2754398;-76
2024/04/18 04:34:02;;;;;;;;;7.50;5.83;;;;;7.71;65.12;101558.84;2192064;26;2741898;-77
2024/04/18 04:35:16;;;;;;;;;6.33;6.00;;;;;7.67;64.87;101562.38;2203896;26;2746372;-77
2024/04/18 04:36:30;;;;;;;;;5.00;5.00;;;;;7.67;65.44;101568.50;2200326;26;2746061;-77
2024/04/18 04:37:44;;;;;;;;;9.17;7.50;;;;;7.64;65.32;101571.13;2167011;26;2740858;-77
2024/04/18 04:38:57;;;;;;;;;5.83;5.00;;;;;7.61;65.05;101573.75;2167725;26;2752307;-77
2024/04/18 04:40:11;;;;;;;;;5.50;5.33;;;;;7.58;65.06;101579.88;2168791;26;2748176;-77
2024/04/18 04:41:26;;;;;;;;;6.33;6.17;;;;;7.54;65.14;101575.56;2206317;26;2750209;-76
2024/04/18 04:42:39;;;;;;;;;6.83;6.00;;;;;7.51;65.20;101584.28;2205363;25;2741913;-76
2024/04/18 04:43:53;;;;;;;;;7.17;6.67;;;;;7.49;65.18;101585.16;2154239;26;2745031;-77
2024/04/18 04:45:07;;;;;;;;;6.83;6.67;;;;;7.43;65.05;101579.09;2205620;26;2732516;-77
2024/04/18 04:46:21;;;;;;;;;8.00;7.17;;;;;7.43;65.57;101588.72;2199402;25;2739808;-76
2024/04/18 04:47:34;;;;;;;;;6.50;6.17;;;;;7.42;65.23;101584.34;2197721;26;2748151;-76
2024/04/18 04:48:48;;;;;;;;;6.67;6.67;;;;;7.45;65.71;101584.34;2179625;26;2746361;-77
2024/04/18 04:50:04;;;;;;;;;6.67;6.67;;;;;7.49;65.35;101588.66;2204117;26;2748179;-77
2024/04/18 04:51:17;;;;;;;;;6.33;5.67;;;;;7.50;65.21;101586.91;2180400;26;2740853;-77
2024/04/18 04:52:31;;;;;;;;;7.67;7.33;;;;;7.44;65.49;101585.19;2205455;25;2754410;-76
2024/04/18 04:53:45;;;;;;;;;8.50;6.67;;;;;7.43;65.40;101586.94;2167574;26;2737757;-76
2024/04/18 04:54:58;;;;;;;;;6.33;6.33;;;;;7.46;65.76;101596.53;2182923;26;2732508;-76
2024/04/18 04:56:09;;;;;;;;;9.00;8.00;;;;;7.46;66.07;101608.75;2149791;26;2731482;-76
2024/04/18 04:57:23;;;;;;;;;6.67;6.67;;;;;7.44;65.89;101598.28;2207296;26;2734600;-76
2024/04/18 04:58:34;;;;;;;;;10.33;8.00;;;;;7.49;65.64;101606.09;2173592;26;2758609;-76
2024/04/18 04:59:48;;;;;;;;;6.50;6.00;;;;;7.49;65.75;101612.22;2193162;26;2740859;-76
2024/04/18 05:01:02;;;;;;;;;8.67;7.33;;;;;7.53;66.43;101623.53;2197276;26;2746070;-76
2024/04/18 05:02:15;;;;;;;;;10.33;9.50;;;;;7.54;66.22;101622.63;2207358;26;2730440;-76
2024/04/18 05:03:29;;;;;;;;;7.00;7.00;;;;;7.56;65.61;101620.88;2180990;26;2737693;-77
2024/04/18 05:04:43;;;;;;;;;8.33;6.83;;;;;7.54;66.07;101614.78;2206636;26;2747099;-76
2024/04/18 05:05:57;;;;;;;;;8.50;8.50;;;;;7.57;66.01;101620.00;2200825;26;2739797;-77
2024/04/18 05:07:10;;;;;;;;;7.17;7.17;;;;;7.60;66.15;101625.25;2204897;26;2727615;-76
2024/04/18 05:08:24;;;;;;;;;9.17;6.50;;;;;7.61;65.52;101631.31;2206402;25;2745052;-77
2024/04/18 05:09:38;;;;;;;;;7.50;7.17;;;;;7.57;66.12;101630.47;2196866;25;2737789;-76
2024/04/18 05:10:52;;;;;;;;;6.83;5.00;;;;;7.54;65.95;101630.50;2193498;26;2748137;-77
2024/04/18 05:12:05;;;;;;;;;7.67;6.00;;;;;7.52;66.00;101637.47;2197987;26;2740834;-77
2024/04/18 05:13:19;;;;;;;;;5.83;5.50;;;;;7.53;66.08;101647.94;2179883;26;2740862;-76
2024/04/18 05:14:33;;;;;;;;;7.67;6.83;;;;;7.49;65.78;101640.97;2200561;26;2748157;-76
2024/04/18 05:15:47;;;;;;;;;6.00;5.83;;;;;7.53;65.52;101655.78;2206257;26;2747381;-76
2024/04/18 05:17:00;;;;;;;;;8.00;7.17;;;;;7.51;66.25;101646.19;2207145;26;2735708;-76
2024/04/18 05:18:15;;;;;;;;;6.33;6.00;;;;;7.53;66.19;101655.78;2204959;25;2746064;-76
2024/04/18 05:19:29;;;;;;;;;8.83;8.17;;;;;7.54;65.74;101657.53;2205486;26;2736675;-76
2024/04/18 05:20:40;;;;;;;;;8.00;6.00;;;;;7.58;66.34;101668.00;2173447;26;2746089;-76
2024/04/18 05:21:54;;;;;;;;;9.67;7.17;;;;;7.56;66.05;101661.88;2208331;25;2747108;-76
2024/04/18 05:23:07;;;;;;;;;8.00;8.00;;;;;7.55;65.69;101666.25;2207747;26;2733541;-76
2024/04/18 05:24:21;;;;;;;;;9.17;8.00;;;;;7.58;66.07;101678.44;2207051;25;2743436;-76
2024/04/18 05:25:35;;;;;;;;;7.50;7.50;;;;;7.57;65.95;101676.69;2178311;26;2745004;-76
2024/04/18 05:26:49;;;;;;;;;10.17;9.50;;;;;7.55;66.11;101676.72;2195788;25;2758584;-76
2024/04/18 05:31:00;;;;;;;;;9.00;9.00;;;;;7.51;65.85;101674.97;2150346;26;2735058;-76
2024/04/18 05:31:10;;;;;;;;;8.17;8.17;;;;;7.47;65.81;101676.75;2200510;26;2733606;-77
2024/04/18 05:32:21;;;;;;;;;10.33;8.67;;;;;7.49;66.08;101679.34;2170378;26;2762742;-76
2024/04/18 05:33:35;;;;;;;;;7.33;6.50;;;;;7.51;66.51;101694.16;2202429;26;2748101;-77
2024/04/18 05:34:45;;;;;;;;;12.00;9.67;;;;;7.49;66.33;101679.34;2174592;26;2775336;-77
2024/04/18 05:35:57;;;;;;;;;10.00;8.33;;;;;7.54;66.96;101690.66;2167263;26;2749263;-76
2024/04/18 05:37:08;;;;;;;;;13.50;12.00;;;;;7.53;65.85;101694.19;2166552;25;2786772;-77
2024/04/18 05:38:19;;;;;;;;;12.67;10.67;;;;;7.54;66.14;101688.03;2170942;25;3496070;-77
2024/04/18 05:39:30;;;;;;;;;13.33;9.33;;;;;7.53;66.26;101692.41;2168168;26;3490867;-77
2024/04/18 05:40:42;;;;;;;;;11.50;10.00;;;;;7.54;66.45;101688.03;2180007;26;1848217;-77